Time;durP1;ratioP1;P1;durP2;ratioP2;P2;SDS_P1;SDS_P2;PMS_P1;PMS_P2;Temp;Humidity;BMP_temperature;BMP_pressure;BME280_temperature;BME280_humidity;BME280_pressure;Samples;Min_cycle;Max_cycle;Signal;HPM_P1;HPM_P2
2022/07/09 00:00:04;;;;;;;3.90;3.50;;;;;;;;;;5029088;28;20683;-53
2022/07/09 00:02:30;;;;;;;3.63;3.07;;;;;;;;;;5048579;28;20303;-53
2022/07/09 00:04:56;;;;;;;3.60;3.30;;;;;;;;;;5069341;28;20189;-54
2022/07/09 00:07:22;;;;;;;4.37;3.20;;;;;;;;;;5049479;28;20265;-56
2022/07/09 00:09:51;;;;;;;3.50;3.23;;;;;;;;;;5049413;28;20151;-53
2022/07/09 00:12:18;;;;;;;3.43;3.13;;;;;;;;;;5048429;28;20173;-52
2022/07/09 00:14:44;;;;;;;3.87;2.80;;;;;;;;;;5031027;28;20519;-53
2022/07/09 00:17:10;;;;;;;5.50;3.03;;;;;;;;;;5049064;28;20590;-53
2022/07/09 00:19:37;;;;;;;3.37;2.90;;;;;;;;;;5031211;28;20213;-52
2022/07/09 00:22:04;;;;;;;4.57;3.53;;;;;;;;;;5062857;28;20177;-53
2022/07/09 00:24:30;;;;;;;5.50;3.50;;;;;;;;;;5068683;28;20290;-53
2022/07/09 00:26:56;;;;;;;5.13;3.30;;;;;;;;;;5066836;28;20177;-53
2022/07/09 00:29:22;;;;;;;3.47;3.17;;;;;;;;;;5048661;28;20182;-52
2022/07/09 00:31:49;;;;;;;3.10;2.80;;;;;;;;;;5029874;28;20169;-52
2022/07/09 00:34:15;;;;;;;4.20;3.23;;;;;;;;;;5033271;28;20803;-52
2022/07/09 00:36:41;;;;;;;3.90;3.50;;;;;;;;;;5049407;28;20192;-53
2022/07/09 00:39:07;;;;;;;3.43;3.07;;;;;;;;;;5049546;28;20279;-53
2022/07/09 00:41:34;;;;;;;3.73;3.20;;;;;;;;;;5067919;28;20469;-53
2022/07/09 00:44:00;;;;;;;5.17;3.30;;;;;;;;;;5050195;28;20714;-53
2022/07/09 00:46:26;;;;;;;4.43;3.33;;;;;;;;;;5067676;28;20251;-52
2022/07/09 00:48:52;;;;;;;4.00;3.67;;;;;;;;;;5068138;28;20505;-53
2022/07/09 00:51:19;;;;;;;3.30;3.00;;;;;;;;;;5068090;28;20231;-53
2022/07/09 00:53:46;;;;;;;3.70;3.03;;;;;;;;;;5066148;28;20240;-55
2022/07/09 00:56:12;;;;;;;3.63;3.13;;;;;;;;;;5054625;28;20279;-52
2022/07/09 00:58:38;;;;;;;5.10;3.30;;;;;;;;;;5066549;28;20196;-52
2022/07/09 01:01:06;;;;;;;3.37;3.07;;;;;;;;;;5067265;28;20294;-52
2022/07/09 01:03:32;;;;;;;4.23;3.40;;;;;;;;;;5069884;28;20182;-51
2022/07/09 01:05:59;;;;;;;4.03;3.63;;;;;;;;;;5081554;28;20196;-51
2022/07/09 01:08:25;;;;;;;4.73;3.80;;;;;;;;;;5048458;28;20181;-53
2022/07/09 01:10:52;;;;;;;3.30;3.00;;;;;;;;;;5067885;28;20215;-52
2022/07/09 01:13:21;;;;;;;3.50;3.30;;;;;;;;;;5049189;28;20545;-52
2022/07/09 01:15:47;;;;;;;3.53;3.23;;;;;;;;;;5067297;28;20600;-54
2022/07/09 01:18:14;;;;;;;4.30;3.50;;;;;;;;;;5066922;28;20522;-52
2022/07/09 01:20:40;;;;;;;3.77;3.47;;;;;;;;;;5067149;28;20176;-53
2022/07/09 01:23:07;;;;;;;3.87;3.43;;;;;;;;;;5065937;28;20166;-53
2022/07/09 01:25:37;;;;;;;4.40;3.87;;;;;;;;;;5065495;28;20303;-51
2022/07/09 01:28:05;;;;;;;4.87;3.57;;;;;;;;;;5083894;28;20148;-54
2022/07/09 01:30:32;;;;;;;5.47;3.50;;;;;;;;;;5069053;28;20489;-53
2022/07/09 01:32:58;;;;;;;5.60;3.83;;;;;;;;;;5068935;28;20176;-53
2022/07/09 01:35:25;;;;;;;4.40;2.87;;;;;;;;;;5085917;28;20569;-53
2022/07/09 01:37:51;;;;;;;3.63;3.20;;;;;;;;;;5065563;28;20165;-52
2022/07/09 01:40:17;;;;;;;4.03;3.50;;;;;;;;;;5067013;28;20479;-53
2022/07/09 01:42:44;;;;;;;4.07;3.67;;;;;;;;;;5066336;28;20184;-51
2022/07/09 01:45:10;;;;;;;3.90;3.40;;;;;;;;;;5067236;28;20558;-53
2022/07/09 01:47:37;;;;;;;5.13;3.60;;;;;;;;;;5066344;28;20521;-52
2022/07/09 01:50:06;;;;;;;3.70;3.40;;;;;;;;;;5067257;28;20168;-52
2022/07/09 01:52:33;;;;;;;5.53;3.70;;;;;;;;;;5029279;28;20197;-51
2022/07/09 01:54:59;;;;;;;3.80;3.30;;;;;;;;;;5046392;28;20188;-52
2022/07/09 01:57:26;;;;;;;3.83;3.47;;;;;;;;;;5057965;28;20178;-52
2022/07/09 01:59:52;;;;;;;3.80;3.50;;;;;;;;;;5087350;28;20165;-52
2022/07/09 02:02:19;;;;;;;3.97;3.57;;;;;;;;;;5050459;28;20197;-53
2022/07/09 02:04:45;;;;;;;6.50;3.70;;;;;;;;;;5066538;28;20196;-53
2022/07/09 02:07:12;;;;;;;4.13;3.73;;;;;;;;;;5065762;28;20180;-53
2022/07/09 02:09:38;;;;;;;3.70;3.10;;;;;;;;;;5066293;28;20165;-51
2022/07/09 02:12:05;;;;;;;4.13;3.83;;;;;;;;;;5065954;28;20168;-52
2022/07/09 02:14:31;;;;;;;3.93;3.57;;;;;;;;;;5048382;28;20177;-52
2022/07/09 02:16:58;;;;;;;3.77;3.23;;;;;;;;;;5066771;28;20603;-53
2022/07/09 02:19:24;;;;;;;4.83;3.70;;;;;;;;;;5067245;28;20599;-53
2022/07/09 02:21:51;;;;;;;3.33;3.03;;;;;;;;;;5065795;28;20169;-52
2022/07/09 02:24:17;;;;;;;4.80;3.77;;;;;;;;;;5065966;28;20246;-53
2022/07/09 02:26:43;;;;;;;4.07;3.73;;;;;;;;;;5056660;28;20212;-55
2022/07/09 02:29:09;;;;;;;3.90;3.60;;;;;;;;;;5048887;28;20208;-53
2022/07/09 02:31:36;;;;;;;4.00;3.60;;;;;;;;;;5066002;28;20254;-55
2022/07/09 02:34:02;;;;;;;5.37;3.87;;;;;;;;;;5048294;28;20172;-51
2022/07/09 02:36:28;;;;;;;5.63;3.80;;;;;;;;;;5047194;28;20224;-52
2022/07/09 02:38:55;;;;;;;6.10;4.40;;;;;;;;;;5065521;28;20145;-52
2022/07/09 02:41:21;;;;;;;4.83;3.90;;;;;;;;;;5065793;28;20173;-53
2022/07/09 02:43:47;;;;;;;4.07;3.70;;;;;;;;;;5066474;28;20184;-51
2022/07/09 02:46:14;;;;;;;4.83;4.20;;;;;;;;;;5066599;28;20683;-52
2022/07/09 02:48:40;;;;;;;7.37;4.17;;;;;;;;;;5066289;28;20160;-53
2022/07/09 02:51:06;;;;;;;4.37;3.97;;;;;;;;;;5066098;28;20200;-53
2022/07/09 02:53:32;;;;;;;4.57;4.17;;;;;;;;;;5046597;28;20679;-53
2022/07/09 02:55:58;;;;;;;4.63;4.07;;;;;;;;;;5051059;28;20707;-53
2022/07/09 02:58:25;;;;;;;4.10;3.73;;;;;;;;;;5066014;28;20177;-53
2022/07/09 03:00:51;;;;;;;4.10;3.70;;;;;;;;;;5061858;28;20196;-53
2022/07/09 03:03:17;;;;;;;7.47;6.77;;;;;;;;;;5066368;28;20208;-57
2022/07/09 03:05:44;;;;;;;5.17;4.60;;;;;;;;;;5066253;28;20625;-53
2022/07/09 03:08:12;;;;;;;5.10;4.00;;;;;;;;;;5047211;28;20177;-57
2022/07/09 03:10:38;;;;;;;5.97;3.90;;;;;;;;;;5048028;28;20300;-51
2022/07/09 03:13:04;;;;;;;5.33;4.43;;;;;;;;;;5065989;28;20249;-52
2022/07/09 03:15:38;;;;;;;4.50;4.10;;;;;;;;;;5068227;28;20246;-52
2022/07/09 03:18:07;;;;;;;4.43;4.00;;;;;;;;;;5071044;28;20180;-53
2022/07/09 03:20:33;;;;;;;4.70;4.30;;;;;;;;;;5068647;28;20189;-51
2022/07/09 03:22:59;;;;;;;4.10;3.80;;;;;;;;;;5069204;28;20169;-53
2022/07/09 03:25:25;;;;;;;4.03;3.67;;;;;;;;;;5051651;28;20213;-53
2022/07/09 03:27:51;;;;;;;4.23;3.93;;;;;;;;;;5051614;28;20505;-54
2022/07/09 03:30:18;;;;;;;5.47;3.73;;;;;;;;;;5070326;28;20167;-52
2022/07/09 03:32:45;;;;;;;4.27;3.83;;;;;;;;;;5089979;28;20623;-51
2022/07/09 03:35:12;;;;;;;4.37;3.97;;;;;;;;;;5072484;27;20215;-51
2022/07/09 03:37:38;;;;;;;3.70;3.40;;;;;;;;;;5068026;28;20448;-52
2022/07/09 03:40:05;;;;;;;4.50;4.10;;;;;;;;;;5070236;28;20185;-52
2022/07/09 03:42:31;;;;;;;4.57;4.10;;;;;;;;;;5068604;28;20271;-52
2022/07/09 03:44:57;;;;;;;4.37;3.97;;;;;;;;;;5069763;28;20180;-52
2022/07/09 03:47:23;;;;;;;4.63;4.03;;;;;;;;;;5050330;28;20180;-51
2022/07/09 03:49:50;;;;;;;4.00;3.70;;;;;;;;;;5069213;28;20168;-51
2022/07/09 03:52:16;;;;;;;4.17;3.87;;;;;;;;;;5067704;28;20224;-51
2022/07/09 03:54:43;;;;;;;4.50;3.80;;;;;;;;;;5069237;28;20215;-52
2022/07/09 03:57:09;;;;;;;4.60;4.20;;;;;;;;;;5063285;28;20258;-52
2022/07/09 03:59:35;;;;;;;4.57;4.17;;;;;;;;;;5069092;28;20165;-52
2022/07/09 04:02:03;;;;;;;4.33;3.93;;;;;;;;;;5068575;28;20169;-53
2022/07/09 04:04:29;;;;;;;4.47;3.73;;;;;;;;;;5050731;28;20196;-53
2022/07/09 04:06:55;;;;;;;5.07;3.97;;;;;;;;;;5061257;28;20181;-52
2022/07/09 04:09:22;;;;;;;5.33;4.83;;;;;;;;;;5069989;28;20172;-53
2022/07/09 04:11:48;;;;;;;4.00;3.70;;;;;;;;;;5088340;28;20179;-53
2022/07/09 04:14:15;;;;;;;4.20;3.80;;;;;;;;;;5088835;28;20473;-53
2022/07/09 04:16:41;;;;;;;4.70;4.30;;;;;;;;;;5076863;28;20263;-52
2022/07/09 04:19:08;;;;;;;4.93;4.43;;;;;;;;;;5050027;28;20410;-53
2022/07/09 04:21:34;;;;;;;6.87;4.40;;;;;;;;;;5068441;28;20662;-53
2022/07/09 04:24:00;;;;;;;4.83;4.23;;;;;;;;;;5067913;28;20646;-52
2022/07/09 04:26:26;;;;;;;4.73;3.97;;;;;;;;;;5068474;28;20573;-53
2022/07/09 04:28:52;;;;;;;4.73;4.20;;;;;;;;;;5068559;28;20218;-53
2022/07/09 04:31:21;;;;;;;5.33;4.40;;;;;;;;;;5068058;28;20177;-53
2022/07/09 04:33:47;;;;;;;4.33;3.93;;;;;;;;;;5066697;28;20321;-53
2022/07/09 04:36:19;;;;;;;5.33;4.67;;;;;;;;;;5057447;28;20768;-53
2022/07/09 04:38:46;;;;;;;4.70;4.13;;;;;;;;;;5049313;28;20709;-52
2022/07/09 04:41:12;;;;;;;4.17;3.87;;;;;;;;;;5068242;28;20173;-54
2022/07/09 04:43:38;;;;;;;5.83;4.53;;;;;;;;;;5067883;28;20615;-53
2022/07/09 04:46:05;;;;;;;5.63;5.17;;;;;;;;;;5068126;28;20192;-50
2022/07/09 04:48:31;;;;;;;5.47;5.07;;;;;;;;;;5068023;28;20504;-52
2022/07/09 04:50:58;;;;;;;5.27;4.77;;;;;;;;;;5052261;28;20288;-53
2022/07/09 04:53:24;;;;;;;5.83;4.13;;;;;;;;;;5065139;28;20267;-52
2022/07/09 04:55:50;;;;;;;5.80;5.10;;;;;;;;;;5068170;28;20583;-53
2022/07/09 04:58:17;;;;;;;5.47;4.50;;;;;;;;;;5068426;28;20177;-52
2022/07/09 05:00:43;;;;;;;7.13;6.53;;;;;;;;;;5087879;28;20175;-55
2022/07/09 05:03:09;;;;;;;7.17;5.90;;;;;;;;;;5087381;28;20160;-52
2022/07/09 05:05:36;;;;;;;6.27;5.53;;;;;;;;;;5066773;28;20199;-52
2022/07/09 05:08:02;;;;;;;6.27;5.67;;;;;;;;;;5066823;28;20164;-52
2022/07/09 05:10:28;;;;;;;6.10;5.40;;;;;;;;;;5048954;28;20199;-52
2022/07/09 05:12:54;;;;;;;10.93;5.63;;;;;;;;;;5049658;28;20223;-52
2022/07/09 05:15:21;;;;;;;5.87;5.37;;;;;;;;;;5049270;28;20168;-52
2022/07/09 05:17:48;;;;;;;6.97;6.17;;;;;;;;;;5068163;28;20672;-52
2022/07/09 05:20:14;;;;;;;9.30;6.87;;;;;;;;;;5067574;28;20965;-51
2022/07/09 05:22:40;;;;;;;7.80;7.10;;;;;;;;;;5066552;28;20226;-53
2022/07/09 05:25:07;;;;;;;9.50;8.43;;;;;;;;;;5067600;28;20212;-51
2022/07/09 05:27:33;;;;;;;9.77;8.70;;;;;;;;;;5067426;28;20164;-54
2022/07/09 05:30:08;;;;;;;11.77;10.67;;;;;;;;;;5034252;28;20958;-57
2022/07/09 05:32:34;;;;;;;11.97;10.87;;;;;;;;;;5067272;28;20276;-52
2022/07/09 05:35:14;;;;;;;11.07;9.73;;;;;;;;;;5048057;28;20264;-53
2022/07/09 05:37:44;;;;;;;13.03;11.63;;;;;;;;;;5026344;28;20606;-51
2022/07/09 05:40:11;;;;;;;14.00;11.27;;;;;;;;;;5027329;28;21190;-53
2022/07/09 05:42:37;;;;;;;14.77;11.10;;;;;;;;;;5034088;28;20189;-52
2022/07/09 05:45:03;;;;;;;15.53;13.43;;;;;;;;;;5027481;28;20198;-52
2022/07/09 05:47:31;;;;;;;16.80;11.87;;;;;;;;;;5028934;28;20185;-52
2022/07/09 05:49:58;;;;;;;15.03;13.50;;;;;;;;;;5029143;28;20177;-51
2022/07/09 05:52:24;;;;;;;14.77;12.03;;;;;;;;;;5046139;28;20271;-52
2022/07/09 05:54:51;;;;;;;12.93;11.70;;;;;;;;;;5028755;28;20217;-52
2022/07/09 05:57:17;;;;;;;14.97;13.33;;;;;;;;;;5046788;28;20196;-51
2022/07/09 05:59:43;;;;;;;15.60;13.47;;;;;;;;;;5028840;28;20177;-52
2022/07/09 06:02:09;;;;;;;14.10;12.60;;;;;;;;;;5046872;28;20567;-53
2022/07/09 06:04:35;;;;;;;14.60;12.70;;;;;;;;;;5046652;28;20189;-52
2022/07/09 06:07:02;;;;;;;14.60;13.20;;;;;;;;;;5045431;28;20272;-52
2022/07/09 06:09:28;;;;;;;16.80;15.07;;;;;;;;;;5044098;28;20219;-53
2022/07/09 06:11:54;;;;;;;14.37;12.90;;;;;;;;;;5034778;28;20234;-52
2022/07/09 06:14:20;;;;;;;15.63;14.00;;;;;;;;;;5028477;28;20181;-53
2022/07/09 06:16:48;;;;;;;16.17;14.60;;;;;;;;;;5028233;28;20624;-52
2022/07/09 06:19:14;;;;;;;16.27;13.67;;;;;;;;;;5029128;28;20189;-53
2022/07/09 06:21:41;;;;;;;17.70;13.53;;;;;;;;;;5027636;28;20184;-52
2022/07/09 06:24:07;;;;;;;18.80;14.23;;;;;;;;;;5045951;28;20230;-53
2022/07/09 06:26:34;;;;;;;19.77;14.83;;;;;;;;;;5029543;28;20173;-53
2022/07/09 06:29:00;;;;;;;16.00;13.83;;;;;;;;;;5027942;28;20617;-53
2022/07/09 06:31:27;;;;;;;17.10;14.30;;;;;;;;;;5036790;28;20197;-53
2022/07/09 06:33:53;;;;;;;18.60;13.40;;;;;;;;;;5028590;28;20173;-51
2022/07/09 06:36:19;;;;;;;19.70;13.67;;;;;;;;;;5041444;28;20314;-51
2022/07/09 06:41:32;;;;;;;17.20;13.13;;;;;;;;;;5066049;28;20237;-52
2022/07/09 06:43:59;;;;;;;19.53;13.10;;;;;;;;;;5066483;28;20626;-52
2022/07/09 06:46:26;;;;;;;17.20;12.43;;;;;;;;;;5047416;28;20188;-53
2022/07/09 06:48:52;;;;;;;15.30;12.53;;;;;;;;;;5048273;28;20187;-54
2022/07/09 06:51:18;;;;;;;16.83;12.90;;;;;;;;;;5065944;28;20566;-52
2022/07/09 06:53:45;;;;;;;16.87;12.17;;;;;;;;;;5068281;28;20604;-53
2022/07/09 06:56:11;;;;;;;17.03;12.03;;;;;;;;;;5051617;28;20203;-53
2022/07/09 06:58:37;;;;;;;15.93;12.37;;;;;;;;;;5069584;28;20249;-53
2022/07/09 07:01:03;;;;;;;15.40;11.03;;;;;;;;;;5050773;28;20196;-54
2022/07/09 07:03:30;;;;;;;13.20;11.23;;;;;;;;;;5060449;28;20173;-53
2022/07/09 07:05:56;;;;;;;15.57;11.47;;;;;;;;;;5068783;28;20211;-53
2022/07/09 07:08:22;;;;;;;13.40;12.00;;;;;;;;;;5049475;28;20204;-53
2022/07/09 07:10:48;;;;;;;15.23;12.10;;;;;;;;;;5050700;28;20263;-53
2022/07/09 07:13:15;;;;;;;16.67;10.47;;;;;;;;;;5068870;28;20528;-53
2022/07/09 07:15:41;;;;;;;12.87;9.90;;;;;;;;;;5051173;28;20184;-53
2022/07/09 07:18:07;;;;;;;15.33;10.77;;;;;;;;;;5069375;28;20202;-52
2022/07/09 07:20:33;;;;;;;12.70;9.43;;;;;;;;;;5068813;28;20276;-52
2022/07/09 07:22:59;;;;;;;12.70;9.40;;;;;;;;;;5033314;28;20184;-53
2022/07/09 07:25:26;;;;;;;14.10;8.80;;;;;;;;;;5050566;28;20654;-53
2022/07/09 07:27:52;;;;;;;14.30;9.17;;;;;;;;;;5051571;28;20172;-52
2022/07/09 07:30:18;;;;;;;11.27;7.97;;;;;;;;;;5050045;28;20187;-52
2022/07/09 07:32:45;;;;;;;11.40;8.17;;;;;;;;;;5083228;28;20218;-53
2022/07/09 07:35:14;;;;;;;13.03;7.97;;;;;;;;;;5071740;27;20167;-55
2022/07/09 07:37:40;;;;;;;12.40;8.13;;;;;;;;;;5047529;28;20204;-53
2022/07/09 07:40:07;;;;;;;11.90;8.50;;;;;;;;;;5031451;28;20212;-54
2022/07/09 07:42:33;;;;;;;13.70;8.77;;;;;;;;;;5067924;28;20192;-53
2022/07/09 07:44:59;;;;;;;11.67;6.93;;;;;;;;;;5069179;28;20199;-53
2022/07/09 07:47:25;;;;;;;9.03;6.53;;;;;;;;;;5050513;28;20268;-54
2022/07/09 07:49:52;;;;;;;10.37;6.80;;;;;;;;;;5069039;28;20157;-53
2022/07/09 07:52:18;;;;;;;8.37;5.87;;;;;;;;;;5067572;28;20604;-51
2022/07/09 07:54:44;;;;;;;8.30;5.93;;;;;;;;;;5050354;28;20590;-53
2022/07/09 07:57:17;;;;;;;7.63;6.17;;;;;;;;;;5067605;28;20180;-53
2022/07/09 07:59:43;;;;;;;7.03;5.63;;;;;;;;;;5033763;28;20637;-53
2022/07/09 08:02:09;;;;;;;6.03;5.10;;;;;;;;;;5067187;28;20634;-52
2022/07/09 08:04:35;;;;;;;4.90;4.13;;;;;;;;;;5049823;28;20216;-53
2022/07/09 08:07:02;;;;;;;6.47;4.60;;;;;;;;;;5066922;28;20191;-52
2022/07/09 08:09:28;;;;;;;5.27;4.23;;;;;;;;;;5066341;28;20203;-51
2022/07/09 08:11:55;;;;;;;4.93;3.73;;;;;;;;;;5060346;28;20169;-50
2022/07/09 08:14:21;;;;;;;4.03;3.50;;;;;;;;;;5068094;28;20231;-52
2022/07/09 08:16:48;;;;;;;4.80;3.60;;;;;;;;;;5067824;28;20669;-53
2022/07/09 08:19:15;;;;;;;4.07;3.27;;;;;;;;;;5049622;28;20247;-53
2022/07/09 08:21:41;;;;;;;8.40;3.03;;;;;;;;;;5067060;28;20172;-54
2022/07/09 08:24:08;;;;;;;3.63;2.90;;;;;;;;;;5048797;28;20220;-53
2022/07/09 08:26:34;;;;;;;4.27;3.30;;;;;;;;;;5067331;28;20215;-53
2022/07/09 08:29:03;;;;;;;3.37;3.03;;;;;;;;;;5049521;28;20632;-52
2022/07/09 08:31:29;;;;;;;3.70;3.10;;;;;;;;;;5067320;28;20185;-53
2022/07/09 08:33:56;;;;;;;3.37;2.37;;;;;;;;;;5049639;28;20578;-57
2022/07/09 08:36:22;;;;;;;4.10;2.60;;;;;;;;;;5040186;28;20228;-52
2022/07/09 08:38:49;;;;;;;3.10;2.70;;;;;;;;;;5046392;28;20672;-53
2022/07/09 08:41:19;;;;;;;3.43;3.13;;;;;;;;;;5029588;28;20186;-53
2022/07/09 08:43:49;;;;;;;3.83;2.73;;;;;;;;;;5047572;28;20463;-52
2022/07/09 08:46:16;;;;;;;3.70;2.70;;;;;;;;;;5029728;28;20209;-52
2022/07/09 08:48:43;;;;;;;3.17;2.63;;;;;;;;;;5029759;28;20182;-51
2022/07/09 08:51:10;;;;;;;4.63;3.13;;;;;;;;;;5029708;28;20207;-53
2022/07/09 08:53:41;;;;;;;3.57;3.17;;;;;;;;;;5028249;28;20589;-54
2022/07/09 08:56:07;;;;;;;2.83;2.63;;;;;;;;;;5047852;28;20628;-53
2022/07/09 08:58:34;;;;;;;4.07;2.53;;;;;;;;;;5029434;28;20675;-53
2022/07/09 09:01:01;;;;;;;2.80;2.53;;;;;;;;;;5028644;28;20210;-53
2022/07/09 09:03:27;;;;;;;3.57;3.17;;;;;;;;;;5047466;28;20189;-53
2022/07/09 09:06:08;;;;;;;3.00;2.80;;;;;;;;;;5029667;28;20718;-54
2022/07/09 09:08:38;;;;;;;26.67;3.33;;;;;;;;;;5046842;28;20206;-53
2022/07/09 09:11:05;;;;;;;12.40;2.60;;;;;;;;;;5029456;28;20557;-53
2022/07/09 09:13:34;;;;;;;11.73;2.93;;;;;;;;;;5028646;28;20639;-52
2022/07/09 09:16:07;;;;;;;11.60;3.13;;;;;;;;;;5031823;28;20188;-52
2022/07/09 09:18:40;;;;;;;4.17;2.30;;;;;;;;;;5045463;28;20233;-54
2022/07/09 09:21:08;;;;;;;9.30;2.53;;;;;;;;;;5041338;28;20215;-53
2022/07/09 09:23:44;;;;;;;4.90;2.83;;;;;;;;;;5045724;28;20180;-52
2022/07/09 09:26:12;;;;;;;8.70;2.33;;;;;;;;;;5046819;28;20233;-51
2022/07/09 09:28:48;;;;;;;5.73;2.20;;;;;;;;;;5046441;28;20174;-52
2022/07/09 09:31:25;;;;;;;4.93;2.10;;;;;;;;;;5046650;28;20176;-52
2022/07/09 09:33:52;;;;;;;4.20;1.80;;;;;;;;;;5028769;28;20173;-53
2022/07/09 09:36:39;;;;;;;2.67;2.20;;;;;;;;;;5039899;28;20323;-52
2022/07/09 09:39:15;;;;;;;3.53;2.00;;;;;;;;;;5047769;28;20615;-54
2022/07/09 09:41:42;;;;;;;2.73;2.03;;;;;;;;;;5065649;28;20292;-53
2022/07/09 09:44:17;;;;;;;2.17;2.00;;;;;;;;;;5048436;28;20816;-53
2022/07/09 09:46:44;;;;;;;2.30;2.10;;;;;;;;;;5078398;28;20174;-53
2022/07/09 09:49:14;;;;;;;2.20;2.00;;;;;;;;;;5068523;28;20177;-53
2022/07/09 09:51:58;;;;;;;2.10;1.90;;;;;;;;;;5055586;28;20256;-53
2022/07/09 09:54:25;;;;;;;2.40;2.20;;;;;;;;;;5066759;28;20169;-52
2022/07/09 09:56:51;;;;;;;1.97;1.80;;;;;;;;;;5062191;28;20679;-53
2022/07/09 09:59:18;;;;;;;3.03;2.23;;;;;;;;;;5068691;28;20257;-53
2022/07/09 10:01:46;;;;;;;1.97;1.83;;;;;;;;;;5055004;28;20191;-56
2022/07/09 10:04:13;;;;;;;4.17;2.13;;;;;;;;;;5048522;28;20185;-52
2022/07/09 10:06:39;;;;;;;2.23;1.90;;;;;;;;;;5065817;28;20246;-53
2022/07/09 10:09:07;;;;;;;2.20;2.00;;;;;;;;;;5047415;28;20201;-53
2022/07/09 10:11:39;;;;;;;2.37;2.17;;;;;;;;;;5077504;28;20301;-53
2022/07/09 10:14:06;;;;;;;2.10;1.90;;;;;;;;;;5086840;28;20168;-52
2022/07/09 10:16:36;;;;;;;1.93;1.83;;;;;;;;;;5056744;28;20230;-53
2022/07/09 10:19:03;;;;;;;2.80;2.50;;;;;;;;;;5066075;28;20169;-53
2022/07/09 10:21:36;;;;;;;3.17;2.00;;;;;;;;;;5045201;28;20193;-53
2022/07/09 10:24:03;;;;;;;2.90;2.70;;;;;;;;;;5044886;28;20565;-54
2022/07/09 10:26:38;;;;;;;3.17;2.20;;;;;;;;;;5051574;28;20229;-54
2022/07/09 10:29:17;;;;;;;4.73;2.27;;;;;;;;;;5055583;28;20188;-52
2022/07/09 10:31:44;;;;;;;2.20;2.00;;;;;;;;;;5084353;28;20623;-52
2022/07/09 10:34:12;;;;;;;1.87;1.77;;;;;;;;;;5073770;28;20175;-53
2022/07/09 10:36:40;;;;;;;1.70;1.60;;;;;;;;;;5091600;27;20247;-53
2022/07/09 10:39:12;;;;;;;1.80;1.70;;;;;;;;;;5091957;28;20695;-53
2022/07/09 10:41:38;;;;;;;1.90;1.80;;;;;;;;;;5061945;28;20219;-53
2022/07/09 10:44:05;;;;;;;3.70;2.17;;;;;;;;;;5054752;28;20243;-54
2022/07/09 10:46:32;;;;;;;2.03;1.93;;;;;;;;;;5061844;28;20299;-52
2022/07/09 10:48:59;;;;;;;2.00;1.90;;;;;;;;;;5092499;28;20176;-53
2022/07/09 10:51:25;;;;;;;2.07;1.97;;;;;;;;;;5064415;28;20212;-52
2022/07/09 10:53:51;;;;;;;1.70;1.60;;;;;;;;;;5053914;28;20271;-54
2022/07/09 10:56:20;;;;;;;1.90;1.80;;;;;;;;;;5072285;28;20225;-54
2022/07/09 10:58:48;;;;;;;2.00;1.80;;;;;;;;;;5053887;28;20514;-53
2022/07/09 11:01:20;;;;;;;1.90;1.80;;;;;;;;;;5072121;28;20606;-54
2022/07/09 11:03:49;;;;;;;2.37;2.17;;;;;;;;;;5072108;28;20468;-52
2022/07/09 11:06:15;;;;;;;2.73;2.23;;;;;;;;;;5072126;28;20678;-53
2022/07/09 11:08:42;;;;;;;2.20;2.10;;;;;;;;;;5036438;28;20195;-52
2022/07/09 11:11:08;;;;;;;2.73;2.30;;;;;;;;;;5054406;28;20821;-53
2022/07/09 11:13:34;;;;;;;2.50;2.30;;;;;;;;;;5053086;28;20409;-54
2022/07/09 11:16:01;;;;;;;2.40;2.17;;;;;;;;;;5072626;28;20253;-53
2022/07/09 11:18:28;;;;;;;2.23;1.90;;;;;;;;;;5054449;28;20279;-53
2022/07/09 11:20:54;;;;;;;3.20;2.40;;;;;;;;;;5072132;28;20191;-53
2022/07/09 11:23:20;;;;;;;2.27;2.17;;;;;;;;;;5052790;28;20184;-52
2022/07/09 11:25:46;;;;;;;2.37;2.23;;;;;;;;;;5072028;28;20265;-52
2022/07/09 11:28:20;;;;;;;2.07;1.90;;;;;;;;;;5072010;28;20183;-53
2022/07/09 11:30:46;;;;;;;2.27;2.07;;;;;;;;;;5055223;28;20218;-52
2022/07/09 11:33:13;;;;;;;2.70;2.50;;;;;;;;;;5069969;28;20615;-52
2022/07/09 11:35:39;;;;;;;3.10;2.10;;;;;;;;;;5072355;28;20172;-53
2022/07/09 11:38:09;;;;;;;2.20;2.10;;;;;;;;;;5050673;28;20225;-51
2022/07/09 11:40:35;;;;;;;2.60;2.40;;;;;;;;;;5068451;28;20232;-52
2022/07/09 11:43:01;;;;;;;2.87;2.67;;;;;;;;;;5049774;28;20192;-53
2022/07/09 11:45:29;;;;;;;2.50;2.30;;;;;;;;;;5050643;28;20208;-53
2022/07/09 11:48:09;;;;;;;2.40;2.20;;;;;;;;;;5034290;28;20273;-54
2022/07/09 11:50:46;;;;;;;2.87;2.63;;;;;;;;;;5050630;28;20287;-54
2022/07/09 11:53:22;;;;;;;3.23;2.83;;;;;;;;;;5049199;28;20181;-53
2022/07/09 11:56:04;;;;;;;3.43;2.73;;;;;;;;;;5068621;28;20547;-53
2022/07/09 11:58:30;;;;;;;2.50;2.30;;;;;;;;;;5050046;28;20469;-53
2022/07/09 12:00:59;;;;;;;3.73;2.90;;;;;;;;;;5056377;28;20742;-52
2022/07/09 12:03:30;;;;;;;3.43;3.23;;;;;;;;;;5069787;28;20176;-53
2022/07/09 12:05:56;;;;;;;3.30;3.00;;;;;;;;;;5064068;28;20212;-53
2022/07/09 12:08:29;;;;;;;3.67;3.37;;;;;;;;;;5032112;28;20328;-53
2022/07/09 12:10:56;;;;;;;4.23;3.10;;;;;;;;;;5068371;28;20172;-53
2022/07/09 12:13:22;;;;;;;3.20;2.90;;;;;;;;;;5067951;28;20173;-52
2022/07/09 12:15:48;;;;;;;4.80;3.47;;;;;;;;;;5068392;28;20537;-52
2022/07/09 12:18:15;;;;;;;3.80;3.50;;;;;;;;;;5068613;28;20604;-52
2022/07/09 12:20:41;;;;;;;6.13;3.80;;;;;;;;;;5050587;28;20195;-54
2022/07/09 12:23:08;;;;;;;4.43;4.03;;;;;;;;;;5068379;28;20376;-53
2022/07/09 12:25:34;;;;;;;5.07;3.60;;;;;;;;;;5086764;28;21489;-53
2022/07/09 12:28:00;;;;;;;6.37;3.70;;;;;;;;;;5077193;28;20177;-54
2022/07/09 12:30:29;;;;;;;4.80;3.80;;;;;;;;;;5067339;28;20236;-54
2022/07/09 12:32:58;;;;;;;4.10;3.80;;;;;;;;;;5067262;28;20619;-52
2022/07/09 12:35:25;;;;;;;4.73;4.40;;;;;;;;;;5067316;28;20152;-54
2022/07/09 12:37:51;;;;;;;5.33;4.13;;;;;;;;;;5051862;27;20591;-54
2022/07/09 12:40:17;;;;;;;4.57;3.77;;;;;;;;;;5029592;28;20230;-53
2022/07/09 12:42:43;;;;;;;5.67;4.50;;;;;;;;;;5030117;28;20208;-53
2022/07/09 12:45:10;;;;;;;4.50;3.97;;;;;;;;;;5030337;28;20656;-53
2022/07/09 12:47:36;;;;;;;7.00;4.23;;;;;;;;;;5048546;28;20173;-53
2022/07/09 12:50:04;;;;;;;3.87;3.47;;;;;;;;;;5029464;28;20648;-55
2022/07/09 12:52:32;;;;;;;12.50;4.13;;;;;;;;;;5026096;28;20186;-53
2022/07/09 12:54:58;;;;;;;5.10;4.47;;;;;;;;;;5029175;28;20652;-56
2022/07/09 12:57:25;;;;;;;6.73;4.00;;;;;;;;;;5036208;28;20340;-53
2022/07/09 12:59:51;;;;;;;4.30;3.83;;;;;;;;;;5027521;28;20172;-53
2022/07/09 13:02:17;;;;;;;6.80;3.73;;;;;;;;;;5026082;28;20700;-53
2022/07/09 13:04:43;;;;;;;3.77;3.47;;;;;;;;;;5047710;28;20193;-53
2022/07/09 13:07:09;;;;;;;5.37;3.20;;;;;;;;;;5028957;28;20207;-53
2022/07/09 13:09:36;;;;;;;4.23;3.87;;;;;;;;;;5048154;28;20153;-55
2022/07/09 13:12:02;;;;;;;3.77;3.40;;;;;;;;;;5029931;28;20181;-53
2022/07/09 13:14:28;;;;;;;4.17;3.37;;;;;;;;;;5048157;28;20158;-54
2022/07/09 13:16:55;;;;;;;4.13;3.73;;;;;;;;;;5047807;28;20178;-53
2022/07/09 13:19:21;;;;;;;4.87;3.27;;;;;;;;;;5048032;28;20157;-54
2022/07/09 13:21:47;;;;;;;5.00;3.17;;;;;;;;;;5029777;28;20268;-54
2022/07/09 13:24:14;;;;;;;5.27;3.40;;;;;;;;;;5029375;28;20660;-53
2022/07/09 13:26:41;;;;;;;3.83;3.53;;;;;;;;;;5029834;28;20212;-54
2022/07/09 13:29:07;;;;;;;3.40;3.10;;;;;;;;;;5047865;28;20235;-55
2022/07/09 13:31:34;;;;;;;9.57;3.73;;;;;;;;;;5009731;28;20563;-53
2022/07/09 13:34:01;;;;;;;3.47;3.10;;;;;;;;;;5009953;28;20185;-55
2022/07/09 13:36:27;;;;;;;3.70;3.37;;;;;;;;;;5008383;28;20217;-54
2022/07/09 13:38:53;;;;;;;3.33;3.03;;;;;;;;;;5065910;28;20256;-53
2022/07/09 13:41:19;;;;;;;3.13;2.93;;;;;;;;;;5046045;28;20196;-54
2022/07/09 13:43:46;;;;;;;3.60;3.30;;;;;;;;;;5046479;28;20182;-54
2022/07/09 13:46:12;;;;;;;3.73;3.20;;;;;;;;;;5054930;28;20196;-54
2022/07/09 13:48:39;;;;;;;4.30;3.93;;;;;;;;;;5066901;28;20165;-53
2022/07/09 13:51:06;;;;;;;3.50;3.23;;;;;;;;;;5048196;28;20380;-55
2022/07/09 13:53:32;;;;;;;3.63;3.30;;;;;;;;;;5047692;28;20172;-54
2022/07/09 13:55:59;;;;;;;3.50;2.97;;;;;;;;;;5061762;28;20184;-54
2022/07/09 13:58:25;;;;;;;3.20;2.97;;;;;;;;;;5048176;28;20203;-53
2022/07/09 14:00:51;;;;;;;3.43;3.20;;;;;;;;;;5065853;28;20228;-53
2022/07/09 14:03:17;;;;;;;4.93;4.63;;;;;;;;;;5065601;28;20538;-53
2022/07/09 14:05:44;;;;;;;2.93;2.70;;;;;;;;;;5066122;28;20197;-54
2022/07/09 14:08:10;;;;;;;2.87;2.67;;;;;;;;;;5047288;28;20181;-54
2022/07/09 14:10:36;;;;;;;2.73;2.53;;;;;;;;;;5067031;28;20229;-53
2022/07/09 14:13:04;;;;;;;5.20;2.90;;;;;;;;;;5066711;28;20271;-54
2022/07/09 14:15:32;;;;;;;5.07;2.57;;;;;;;;;;5048683;28;20247;-54
2022/07/09 14:17:58;;;;;;;2.33;2.20;;;;;;;;;;5048665;28;20211;-55
2022/07/09 14:20:25;;;;;;;3.57;3.37;;;;;;;;;;5066077;28;20599;-54
2022/07/09 14:22:51;;;;;;;2.70;2.50;;;;;;;;;;5047008;28;20210;-54
2022/07/09 14:25:18;;;;;;;4.67;2.80;;;;;;;;;;5067081;28;20311;-54
2022/07/09 14:27:44;;;;;;;2.63;2.50;;;;;;;;;;5058364;28;20177;-52
2022/07/09 14:30:11;;;;;;;2.23;2.10;;;;;;;;;;5046301;28;20171;-53
2022/07/09 14:32:37;;;;;;;2.03;1.93;;;;;;;;;;5065567;28;20271;-53
2022/07/09 14:35:04;;;;;;;3.83;2.57;;;;;;;;;;5066307;28;20623;-54
2022/07/09 14:37:30;;;;;;;3.00;2.20;;;;;;;;;;5048128;28;20240;-53
2022/07/09 14:39:57;;;;;;;2.23;2.03;;;;;;;;;;5048125;28;20178;-54